Time;durP1;ratioP1;P1;durP2;ratioP2;P2;SDS_P1;SDS_P2;PMS_P1;PMS_P2;Temp;Humidity;BMP_temperature;BMP_pressure;BME280_temperature;BME280_humidity;BME280_pressure;Samples;Min_cycle;Max_cycle;Signal;HPM_P1;HPM_P2
2023/05/15 00:00:55;;;;;;;11.80;5.80;;;;;;;12.71;70.67;99772.38;105453;1263;60376;-72
2023/05/15 00:03:42;;;;;;;10.20;6.00;;;;;;;12.73;70.57;99773.70;105709;1254;72801;-72
2023/05/15 00:06:31;;;;;;;11.10;6.40;;;;;;;12.76;70.70;99772.02;105488;1254;67538;-72
2023/05/15 00:09:20;;;;;;;13.00;6.30;;;;;;;12.78;70.46;99762.97;105741;1260;71388;-72
2023/05/15 00:12:08;;;;;;;14.70;6.30;;;;;;;12.78;70.39;99762.07;106243;1260;59676;-73
2023/05/15 00:14:56;;;;;;;13.70;6.70;;;;;;;12.76;70.46;99753.33;106145;1260;60834;-73
2023/05/15 00:17:46;;;;;;;11.80;5.90;;;;;;;12.75;70.77;99756.98;105970;1260;72314;-74
2023/05/15 00:20:35;;;;;;;13.40;6.70;;;;;;;12.74;70.88;99753.02;105864;1257;65596;-74
2023/05/15 00:23:25;;;;;;;12.50;7.10;;;;;;;12.71;70.85;99746.52;105668;1257;71523;-76
2023/05/15 00:26:14;;;;;;;12.70;6.30;;;;;;;12.69;70.98;99743.66;105960;1263;59838;-74
2023/05/15 00:29:03;;;;;;;13.40;6.40;;;;;;;12.66;70.94;99738.41;105549;1263;59774;-72
2023/05/15 00:31:52;;;;;;;11.10;6.40;;;;;;;12.63;71.03;99733.71;105010;1257;1003442;-73
2023/05/15 00:34:41;;;;;;;13.40;6.70;;;;;;;12.61;70.95;99730.73;106187;1259;69098;-72
2023/05/15 00:37:32;;;;;;;13.20;6.60;;;;;;;12.58;71.10;99723.32;106020;1257;72100;-73
2023/05/15 00:40:24;;;;;;;12.30;6.20;;;;;;;12.56;71.31;99725.40;105808;1263;60597;-72
2023/05/15 00:43:15;;;;;;;10.90;5.90;;;;;;;12.54;71.41;99721.54;105630;1267;59640;-71
2023/05/15 00:46:09;;;;;;;11.30;6.10;;;;;;;12.53;71.67;99719.89;105509;1267;71983;-71
2023/05/15 00:49:00;;;;;;;11.90;6.60;;;;;;;12.51;72.04;99714.72;105486;1266;67230;-73
2023/05/15 00:51:51;;;;;;;13.80;6.90;;;;;;;12.50;72.09;99711.74;105473;1264;72792;-72
2023/05/15 00:54:41;;;;;;;11.50;6.70;;;;;;;12.49;72.18;99712.22;105554;1263;59740;-71
2023/05/15 00:57:33;;;;;;;10.50;6.50;;;;;;;12.46;72.51;99710.90;105533;1264;59510;-71
2023/05/15 01:00:22;;;;;;;12.60;6.50;;;;;;;12.42;72.39;99705.90;105525;1263;73198;-72
2023/05/15 01:03:10;;;;;;;11.90;6.70;;;;;;;12.38;72.79;99703.25;105369;1264;67675;-70
2023/05/15 01:05:59;;;;;;;13.40;7.10;;;;;;;12.33;72.75;99702.27;105345;1265;73898;-72
2023/05/15 01:08:48;;;;;;;12.10;6.60;;;;;;;12.27;72.86;99696.02;105372;1264;59729;-70
2023/05/15 01:11:38;;;;;;;13.20;6.50;;;;;;;12.22;73.07;99695.66;105925;1260;61347;-71
2023/05/15 01:14:26;;;;;;;12.80;6.70;;;;;;;12.17;73.26;99693.24;105459;1260;74659;-71
2023/05/15 01:17:14;;;;;;;12.60;6.90;;;;;;;12.13;73.54;99694.80;105423;1260;69049;-72
2023/05/15 01:20:08;;;;;;;11.70;6.80;;;;;;;12.11;73.97;99697.50;105490;1261;73404;-72
2023/05/15 01:24:16;;;;;;;13.90;7.30;;;;;;;12.10;74.04;99693.67;105374;1274;59726;-72
2023/05/15 01:27:20;;;;;;;11.20;6.30;;;;;;;12.10;74.16;99689.21;105504;1263;60515;-71
2023/05/15 01:30:34;;;;;;;10.90;6.40;;;;;;;12.10;74.60;99687.23;105694;1263;73188;-71
2023/05/15 01:33:37;;;;;;;11.10;6.60;;;;;;;12.10;74.42;99684.95;106328;1254;66587;-71
2023/05/15 01:36:41;;;;;;;13.60;7.10;;;;;;;12.10;74.59;99683.73;105778;1254;73581;-72
2023/05/15 01:39:33;;;;;;;13.10;7.00;;;;;;;12.08;74.75;99682.13;105581;1256;59709;-72
2023/05/15 01:42:29;;;;;;;11.60;6.30;;;;;;;12.05;74.45;99678.96;105640;1264;59650;-72
2023/05/15 01:45:22;;;;;;;10.90;6.40;;;;;;;12.03;74.69;99675.59;105396;1267;71777;-72
2023/05/15 01:48:14;;;;;;;13.80;6.70;;;;;;;12.00;74.87;99669.89;105657;1268;67979;-72
2023/05/15 01:51:07;;;;;;;12.80;6.80;;;;;;;11.97;75.16;99678.28;105281;1264;72755;-73
2023/05/15 01:53:58;;;;;;;13.60;6.40;;;;;;;11.95;75.13;99670.09;105357;1262;59590;-73
2023/05/15 01:56:46;;;;;;;11.80;6.40;;;;;;;11.95;75.29;99672.48;105261;1264;60030;-73
2023/05/15 01:59:36;;;;;;;13.10;6.80;;;;;;;11.96;75.71;99669.73;105377;1264;71786;-73
2023/05/15 02:02:27;;;;;;;13.30;7.10;;;;;;;11.97;75.69;99667.84;105320;1263;66404;-73
2023/05/15 02:05:18;;;;;;;10.90;6.20;;;;;;;11.97;76.00;99666.60;105284;1263;72481;-71
2023/05/15 02:08:08;;;;;;;15.50;10.50;;;;;;;11.96;76.03;99664.18;105246;1262;60174;-70
2023/05/15 02:11:01;;;;;;;11.40;7.60;;;;;;;11.93;75.86;99661.91;105429;1262;60221;-71
2023/05/15 02:13:51;;;;;;;11.60;6.40;;;;;;;11.91;75.96;99658.33;105748;1264;73369;-71
2023/05/15 02:16:39;;;;;;;12.30;6.80;;;;;;;11.89;76.29;99655.15;105404;1260;68497;-71
2023/05/15 02:19:28;;;;;;;12.70;6.50;;;;;;;11.86;76.03;99651.00;105793;1264;72771;-72
2023/05/15 02:22:17;;;;;;;15.10;6.80;;;;;;;11.84;76.13;99647.09;105693;1254;59570;-71
2023/05/15 02:25:05;;;;;;;12.20;6.00;;;;;;;11.82;76.51;99645.80;105868;1259;59576;-72
2023/05/15 02:27:59;;;;;;;11.00;6.00;;;;;;;11.82;76.45;99642.45;105636;1254;73184;-74
2023/05/15 02:31:07;;;;;;;10.40;6.30;;;;;;;11.83;76.78;99639.54;105812;1261;69465;-72
2023/05/15 02:34:27;;;;;;;12.20;6.40;;;;;;;11.86;76.86;99639.10;106172;1254;72792;-74
2023/05/15 02:37:23;;;;;;;10.40;6.00;;;;;;;11.88;77.02;99638.54;105913;1256;59835;-72
2023/05/15 02:40:12;;;;;;;11.60;6.40;;;;;;;11.90;76.89;99632.15;105974;1257;60296;-74
2023/05/15 02:43:04;;;;;;;13.40;6.60;;;;;;;11.91;76.97;99631.89;106029;1254;71820;-74
2023/05/15 02:45:55;;;;;;;12.30;6.30;;;;;;;11.89;76.30;99630.40;105798;1257;68008;-75
2023/05/15 02:48:43;;;;;;;13.50;6.70;;;;;;;11.88;76.14;99630.71;105674;1264;71424;-74
2023/05/15 02:51:33;;;;;;;13.10;7.10;;;;;;;11.87;76.34;99627.78;105650;1258;60794;-73
2023/05/15 02:54:22;;;;;;;11.80;6.30;;;;;;;11.85;76.27;99624.23;105967;1258;59508;-74
2023/05/15 02:57:11;;;;;;;11.30;6.60;;;;;;;11.85;76.55;99622.29;106495;1262;72862;-72
2023/05/15 02:59:59;;;;;;;11.80;6.10;;;;;;;11.86;76.68;99620.27;106786;1262;68140;-72
2023/05/15 03:02:49;;;;;;;12.90;6.10;;;;;;;11.88;76.63;99613.50;106782;1259;71151;-73
2023/05/15 03:05:37;;;;;;;11.30;6.40;;;;;;;11.91;76.44;99608.37;106945;1265;59687;-71
2023/05/15 03:08:26;;;;;;;10.90;6.10;;;;;;;11.96;76.77;99604.30;106307;1259;59635;-74
2023/05/15 03:11:18;;;;;;;13.30;6.00;;;;;;;11.98;76.42;99601.05;105942;1261;73068;-71
2023/05/15 03:14:06;;;;;;;11.70;6.50;;;;;;;12.01;76.25;99596.70;106345;1260;67976;-72
2023/05/15 03:16:54;;;;;;;12.90;6.30;;;;;;;12.02;76.17;99591.27;105489;1260;72467;-72
2023/05/15 03:19:42;;;;;;;11.40;6.10;;;;;;;12.01;75.92;99581.59;106152;1260;59613;-75
2023/05/15 03:22:31;;;;;;;11.90;6.00;;;;;;;12.04;75.56;99580.25;105429;1259;61595;-73
2023/05/15 03:25:20;;;;;;;12.60;6.00;;;;;;;12.04;75.59;99576.45;105781;1260;72880;-71
2023/05/15 03:28:08;;;;;;;9.90;6.20;;;;;;;12.06;75.53;99572.83;106157;1257;67963;-72
2023/05/15 03:30:56;;;;;;;11.70;6.20;;;;;;;12.07;75.51;99574.27;108416;1253;71078;-73
2023/05/15 03:33:48;;;;;;;12.80;6.50;;;;;;;12.11;75.34;99567.40;106012;1260;61196;-75
2023/05/15 03:36:38;;;;;;;10.20;5.90;;;;;;;12.15;75.10;99568.05;105905;1264;60685;-73
2023/05/15 03:39:26;;;;;;;12.40;5.90;;;;;;;12.19;75.05;99569.30;105151;1267;71483;-75
2023/05/15 03:42:22;;;;;;;11.20;6.20;;;;;;;12.23;74.61;99566.59;105346;1270;67680;-75
2023/05/15 03:45:10;;;;;;;11.30;5.80;;;;;;;12.26;74.02;99562.91;105158;1270;71061;-77
2023/05/15 03:47:59;;;;;;;11.60;6.60;;;;;;;12.29;73.77;99559.48;106507;1270;59793;-75
2023/05/15 03:50:47;;;;;;;10.50;5.60;;;;;;;12.30;73.45;99558.86;105355;1273;59727;-71
2023/05/15 03:53:35;;;;;;;10.40;5.30;;;;;;;12.29;73.23;99552.69;105502;1267;73128;-70
2023/05/15 03:56:26;;;;;;;10.40;6.20;;;;;;;12.29;73.53;99549.16;105183;1267;67488;-70
2023/05/15 03:59:15;;;;;;;11.50;5.50;;;;;;;12.27;73.36;99546.65;105105;1270;72700;-67
2023/05/15 04:02:03;;;;;;;9.60;5.40;;;;;;;12.25;73.58;99546.60;105105;1270;59796;-69
2023/05/15 04:04:52;;;;;;;12.10;5.60;;;;;;;12.27;73.89;99545.77;105086;1264;61076;-68
2023/05/15 04:07:42;;;;;;;10.70;5.40;;;;;;;12.27;73.99;99543.98;105396;1260;72858;-66
2023/05/15 04:10:32;;;;;;;11.50;5.80;;;;;;;12.29;73.99;99545.45;105767;1260;67906;-66
2023/05/15 04:13:22;;;;;;;12.90;6.10;;;;;;;12.33;74.24;99545.20;105835;1257;73374;-69
2023/05/15 04:16:10;;;;;;;13.00;6.30;;;;;;;12.38;74.26;99544.98;105683;1257;59751;-68
2023/05/15 04:18:58;;;;;;;10.70;6.70;;;;;;;12.43;74.24;99539.66;105544;1256;59599;-69
2023/05/15 04:21:47;;;;;;;12.00;5.90;;;;;;;12.48;74.13;99543.83;105519;1259;73026;-68
2023/05/15 04:24:37;;;;;;;12.30;6.20;;;;;;;12.54;74.16;99549.66;105857;1256;67049;-68
2023/05/15 04:27:25;;;;;;;12.40;7.00;;;;;;;12.59;73.69;99548.63;105651;1259;72030;-72
2023/05/15 04:30:14;;;;;;;13.10;6.70;;;;;;;12.69;73.82;99548.10;106016;1256;59753;-71
2023/05/15 04:33:03;;;;;;;12.10;6.60;;;;;;;12.76;73.70;99549.70;105587;1256;59672;-73
2023/05/15 04:35:52;;;;;;;12.90;6.50;;;;;;;12.85;73.75;99545.67;105892;1257;73796;-76
2023/05/15 04:38:40;;;;;;;16.60;6.90;;;;;;;12.94;73.63;99551.08;105931;1260;68366;-74
2023/05/15 04:41:29;;;;;;;11.10;6.30;;;;;;;13.04;73.50;99544.94;105757;1256;71830;-74
2023/05/15 04:44:17;;;;;;;12.00;6.30;;;;;;;13.14;73.33;99540.77;105731;1260;59809;-73
2023/05/15 04:47:07;;;;;;;10.40;5.40;;;;;;;13.23;72.97;99534.16;106321;1255;59393;-79
2023/05/15 04:50:03;;;;;;;15.50;6.00;;;;;;;13.32;72.52;99533.48;107594;1256;73351;-79
2023/05/15 04:53:04;;;;;;;13.60;5.60;;;;;;;13.40;71.84;99528.67;107547;1256;68291;-79
2023/05/15 04:55:54;;;;;;;12.60;6.40;;;;;;;13.47;71.24;99522.65;106657;1256;71933;-81
2023/05/15 04:58:52;;;;;;;9.40;5.40;;;;;;;13.55;70.90;99522.93;106516;1263;60328;-82
2023/05/15 05:01:45;;;;;;;11.00;5.90;;;;;;;13.66;70.31;99515.48;106600;1259;61074;-82
2023/05/15 05:04:33;;;;;;;10.00;5.80;;;;;;;13.76;69.85;99509.44;105706;1262;71632;-82
2023/05/15 05:07:22;;;;;;;12.70;5.90;;;;;;;13.87;69.38;99506.35;105751;1268;67932;-81
2023/05/15 05:10:11;;;;;;;11.70;6.30;;;;;;;14.02;69.31;99505.80;105878;1262;72669;-82
2023/05/15 05:12:59;;;;;;;11.40;6.70;;;;;;;14.11;68.94;99494.48;105906;1267;59754;-81
2023/05/15 05:15:47;;;;;;;12.60;6.50;;;;;;;14.22;68.99;99495.91;105913;1262;60144;-81
2023/05/15 05:18:36;;;;;;;13.00;6.60;;;;;;;14.32;68.87;99495.55;106535;1263;71732;-81
2023/05/15 05:21:25;;;;;;;12.80;6.50;;;;;;;14.34;68.67;99475.80;106475;1261;68196;-82
2023/05/15 05:24:13;;;;;;;11.20;6.50;;;;;;;14.51;68.63;99485.96;105415;1262;71409;-75
2023/05/15 05:27:01;;;;;;;12.50;6.30;;;;;;;14.63;68.51;99484.99;105487;1262;59808;-76
2023/05/15 05:29:51;;;;;;;10.00;6.30;;;;;;;14.74;68.22;99483.63;105524;1258;59504;-76
2023/05/15 05:32:39;;;;;;;11.70;6.30;;;;;;;14.85;68.08;99483.55;105482;1260;71780;-75
2023/05/15 05:35:28;;;;;;;10.80;6.50;;;;;;;14.93;67.75;99483.04;105497;1259;66501;-76
2023/05/15 05:38:16;;;;;;;16.60;7.20;;;;;;;15.02;67.86;99478.44;105664;1261;72791;-76
2023/05/15 05:41:04;;;;;;;15.80;7.90;;;;;;;15.08;67.51;99481.31;105677;1264;59704;-78
2023/05/15 05:43:52;;;;;;;14.60;6.20;;;;;;;15.12;67.43;99476.95;105697;1258;211554;-78
2023/05/15 05:46:41;;;;;;;13.20;6.20;;;;;;;15.15;66.79;99481.10;105679;1259;70510;-77
2023/05/15 05:49:29;;;;;;;11.20;5.90;;;;;;;15.14;66.68;99483.61;105630;1262;68108;-76
2023/05/15 05:52:18;;;;;;;13.90;6.10;;;;;;;15.08;66.78;99492.08;105830;1265;71173;-75
2023/05/15 05:55:08;;;;;;;10.40;6.00;;;;;;;15.03;66.82;99495.83;105533;1264;59350;-76
2023/05/15 05:57:56;;;;;;;12.00;7.60;;;;;;;14.95;67.15;99485.92;105649;1259;61263;-76
2023/05/15 06:00:46;;;;;;;14.50;6.50;;;;;;;14.91;67.32;99490.48;105823;1259;73029;-76
2023/05/15 06:03:34;;;;;;;13.20;6.80;;;;;;;14.87;67.49;99501.39;106005;1253;67838;-75
2023/05/15 06:06:23;;;;;;;13.20;7.00;;;;;;;14.89;67.34;99510.17;105886;1261;70502;-77
2023/05/15 06:09:11;;;;;;;14.50;8.00;;;;;;;14.88;67.47;99494.52;106116;1254;59724;-76
2023/05/15 06:11:59;;;;;;;14.10;8.10;;;;;;;14.82;67.32;99497.48;105919;1259;59660;-77
2023/05/15 06:14:48;;;;;;;15.10;6.90;;;;;;;14.77;67.10;99486.71;105865;1254;71900;-74
2023/05/15 06:17:37;;;;;;;12.80;7.10;;;;;;;14.76;67.46;99484.73;105999;1255;66450;-76
2023/05/15 06:20:27;;;;;;;14.00;6.90;;;;;;;14.73;67.53;99472.27;106287;1253;73423;-75
2023/05/15 06:23:15;;;;;;;14.80;7.00;;;;;;;14.71;67.60;99461.31;105997;1259;59697;-74
2023/05/15 06:26:04;;;;;;;10.80;6.30;;;;;;;14.70;67.65;99456.52;106069;1253;60066;-76
2023/05/15 06:28:52;;;;;;;14.10;6.30;;;;;;;14.71;67.64;99460.19;106027;1253;72769;-76
2023/05/15 06:31:40;;;;;;;13.30;5.90;;;;;;;14.70;67.43;99477.79;105843;1263;66495;-74
2023/05/15 06:34:28;;;;;;;116.80;29.50;;;;;;;14.68;67.90;99499.46;106077;1253;71356;-76
2023/05/15 06:37:17;;;;;;;97.20;26.80;;;;;;;14.66;68.01;99496.48;105927;1254;59682;-75
2023/05/15 06:40:08;;;;;;;48.50;16.10;;;;;;;14.69;67.80;99489.39;105778;1258;60460;-74
2023/05/15 06:42:57;;;;;;;38.30;11.90;;;;;;;14.74;67.73;99491.20;105747;1254;72871;-76
2023/05/15 06:45:45;;;;;;;30.00;10.20;;;;;;;14.81;67.98;99479.87;105749;1255;66705;-74
2023/05/15 06:48:35;;;;;;;22.50;8.00;;;;;;;14.89;68.24;99476.16;105476;1254;73963;-74
2023/05/15 06:51:23;;;;;;;19.40;7.80;;;;;;;14.93;68.07;99484.33;105604;1254;59727;-74
2023/05/15 06:54:11;;;;;;;17.50;7.60;;;;;;;15.02;67.98;99479.70;105773;1258;59531;-74
2023/05/15 06:57:00;;;;;;;19.00;8.70;;;;;;;15.09;67.49;99475.16;105584;1256;73983;-72
2023/05/15 06:59:49;;;;;;;18.60;8.80;;;;;;;15.16;66.99;99481.52;105890;1255;66738;-73
2023/05/15 07:02:37;;;;;;;23.70;10.70;;;;;;;15.21;66.77;99472.81;105627;1257;73125;-73
2023/05/15 07:05:26;;;;;;;41.90;16.20;;;;;;;15.24;66.20;99474.08;105615;1262;59745;-73
2023/05/15 07:08:15;;;;;;;30.80;13.10;;;;;;;15.27;66.25;99455.40;105534;1261;59988;-74
2023/05/15 07:11:03;;;;;;;20.20;9.10;;;;;;;15.28;66.73;99441.83;105681;1263;74075;-74
2023/05/15 07:13:52;;;;;;;15.00;7.80;;;;;;;15.31;66.80;99430.67;106295;1257;69436;-71
2023/05/15 07:16:40;;;;;;;13.80;6.60;;;;;;;15.35;66.41;99431.52;105954;1258;73435;-71
2023/05/15 07:19:30;;;;;;;9.90;5.80;;;;;;;15.40;64.66;99434.14;106217;1257;60063;-73
2023/05/15 07:22:18;;;;;;;11.10;5.60;;;;;;;15.46;63.77;99433.91;105940;1258;59543;-76
2023/05/15 07:25:07;;;;;;;15.80;6.40;;;;;;;15.52;64.38;99428.45;105967;1258;73240;-75
2023/05/15 07:27:56;;;;;;;11.00;5.80;;;;;;;15.59;63.80;99432.27;106157;1260;67636;-75
2023/05/15 07:30:44;;;;;;;14.30;6.10;;;;;;;15.66;63.40;99438.88;105703;1259;71170;-76
2023/05/15 07:33:32;;;;;;;17.10;6.10;;;;;;;15.68;61.96;99459.77;105811;1258;59768;-76
2023/05/15 07:36:21;;;;;;;16.60;6.30;;;;;;;15.70;61.25;99471.73;105893;1257;60179;-76
2023/05/15 07:39:09;;;;;;;10.30;5.90;;;;;;;15.74;61.80;99461.21;105895;1262;73133;-78
2023/05/15 07:41:57;;;;;;;20.20;7.50;;;;;;;15.81;61.79;99462.46;106162;1257;66908;-76
2023/05/15 07:44:45;;;;;;;17.90;7.80;;;;;;;15.93;61.17;99459.39;105787;1254;72731;-78
2023/05/15 07:47:37;;;;;;;15.70;7.30;;;;;;;16.09;60.98;99442.42;105902;1257;59811;-77
2023/05/15 07:50:25;;;;;;;15.20;6.40;;;;;;;16.33;60.48;99453.73;105881;1254;59635;-76
2023/05/15 07:53:15;;;;;;;11.80;5.30;;;;;;;16.49;59.36;99451.60;105854;1255;71666;-76
2023/05/15 07:56:04;;;;;;;14.00;5.70;;;;;;;16.56;58.25;99445.04;106095;1253;67754;-77
2023/05/15 07:58:52;;;;;;;11.20;4.90;;;;;;;16.58;57.94;99441.14;105945;1254;72990;-77
2023/05/15 08:01:42;;;;;;;12.00;5.60;;;;;;;16.65;58.02;99436.13;106145;1254;59567;-77
2023/05/15 08:04:30;;;;;;;9.20;5.20;;;;;;;16.78;58.50;99409.41;106376;1253;59500;-77
2023/05/15 08:07:24;;;;;;;11.90;5.20;;;;;;;16.92;57.81;99392.47;106172;1254;71813;-76
2023/05/15 08:10:14;;;;;;;10.20;5.00;;;;;;;17.03;56.30;99374.73;106065;1254;66522;-77
2023/05/15 08:13:02;;;;;;;18.60;7.40;;;;;;;17.17;55.14;99367.25;106009;1259;72287;-77
2023/05/15 08:15:50;;;;;;;18.40;7.10;;;;;;;17.31;53.04;99364.66;105926;1259;59652;-78
2023/05/15 08:18:38;;;;;;;21.40;7.60;;;;;;;17.49;51.23;99356.81;106292;1253;59899;-77
2023/05/15 08:21:27;;;;;;;12.80;4.40;;;;;;;17.66;49.53;99358.08;107242;1254;72768;-79
2023/05/15 08:24:15;;;;;;;10.10;4.20;;;;;;;17.79;47.44;99373.22;106177;1254;66318;-77
2023/05/15 08:27:05;;;;;;;9.50;4.20;;;;;;;17.90;46.24;99374.67;107419;1258;71723;-76
2023/05/15 08:29:54;;;;;;;11.00;3.80;;;;;;;17.96;46.14;99383.91;106698;1253;59718;-77
2023/05/15 08:32:47;;;;;;;10.70;3.70;;;;;;;18.05;45.63;99370.86;107011;1259;60378;-76
2023/05/15 08:35:35;;;;;;;11.10;4.20;;;;;;;18.14;44.87;99363.55;107113;1262;71452;-75
2023/05/15 08:38:24;;;;;;;13.20;5.50;;;;;;;18.25;45.61;99351.13;105393;1268;67847;-75
2023/05/15 08:41:30;;;;;;;16.60;5.00;;;;;;;18.30;45.91;99346.02;105379;1262;72779;-74
2023/05/15 08:44:29;;;;;;;12.90;4.70;;;;;;;18.31;45.76;99342.23;105392;1262;59917;-76
2023/05/15 08:47:19;;;;;;;12.20;4.60;;;;;;;18.33;45.87;99347.60;105510;1266;59637;-76
2023/05/15 08:50:16;;;;;;;13.00;4.40;;;;;;;18.30;46.41;99347.55;105600;1263;72975;-76
2023/05/15 08:53:05;;;;;;;13.60;5.00;;;;;;;18.27;46.55;99350.09;105529;1262;66637;-76
2023/05/15 08:55:53;;;;;;;12.90;4.50;;;;;;;18.26;46.60;99356.33;105646;1262;72744;-77
2023/05/15 08:58:42;;;;;;;12.70;5.00;;;;;;;18.33;46.42;99352.04;105715;1262;59543;-78
2023/05/15 09:01:31;;;;;;;14.10;5.40;;;;;;;18.38;46.04;99351.23;106450;1262;59478;-77
2023/05/15 09:04:19;;;;;;;9.30;3.70;;;;;;;18.39;45.40;99378.09;106731;1263;72703;-77
2023/05/15 09:07:10;;;;;;;9.70;4.20;;;;;;;18.27;45.52;99359.58;107082;1255;67720;-77
2023/05/15 09:10:01;;;;;;;9.30;3.50;;;;;;;18.14;46.03;99357.95;107417;1254;72416;-76
2023/05/15 09:12:51;;;;;;;8.40;3.60;;;;;;;18.07;46.46;99360.79;106051;1254;59607;-77
2023/05/15 09:15:40;;;;;;;8.80;3.80;;;;;;;18.01;46.57;99366.59;106052;1256;60131;-77
2023/05/15 09:18:31;;;;;;;8.60;3.90;;;;;;;18.01;46.79;99361.79;106538;1259;72869;-76
2023/05/15 09:21:28;;;;;;;9.80;3.60;;;;;;;17.89;47.01;99357.32;107188;1258;67878;-75
2023/05/15 09:24:27;;;;;;;7.20;3.50;;;;;;;17.80;47.41;99368.42;106643;1254;72436;-75
2023/05/15 09:27:15;;;;;;;8.20;3.80;;;;;;;17.72;47.44;99367.98;106295;1255;59760;-73
2023/05/15 09:30:10;;;;;;;11.20;4.10;;;;;;;17.73;47.91;99356.77;106041;1257;61089;-75
2023/05/15 09:33:02;;;;;;;9.10;3.60;;;;;;;17.80;48.48;99348.56;105816;1254;71550;-70
2023/05/15 09:35:51;;;;;;;11.90;4.10;;;;;;;17.84;48.10;99347.54;107950;1253;67626;-72
2023/05/15 09:38:42;;;;;;;10.60;3.90;;;;;;;17.89;47.54;99351.39;106606;1255;71291;-69
2023/05/15 09:41:30;;;;;;;9.30;3.90;;;;;;;17.83;45.73;99364.51;105652;1254;59535;-73
2023/05/15 09:44:26;;;;;;;10.00;4.10;;;;;;;17.83;46.13;99368.40;105755;1254;59594;-72
2023/05/15 09:47:17;;;;;;;10.80;4.60;;;;;;;17.77;46.18;99364.73;105874;1254;72888;-72
2023/05/15 09:50:08;;;;;;;7.80;4.10;;;;;;;17.78;46.13;99370.27;106133;1258;69101;-73
2023/05/15 09:52:58;;;;;;;12.30;4.40;;;;;;;17.83;45.91;99364.70;105823;1254;73604;-72
2023/05/15 09:55:48;;;;;;;11.50;4.70;;;;;;;17.88;45.73;99355.14;105778;1256;59722;-72
2023/05/15 09:58:37;;;;;;;11.90;4.70;;;;;;;17.90;45.37;99351.11;105784;1254;60387;-74
2023/05/15 10:01:26;;;;;;;9.60;4.00;;;;;;;17.81;44.93;99350.16;106096;1257;73170;-73
2023/05/15 10:04:16;;;;;;;11.70;4.40;;;;;;;17.72;45.61;99350.77;106016;1254;66334;-73
2023/05/15 10:07:08;;;;;;;12.40;4.80;;;;;;;17.63;46.17;99352.92;105793;1254;70739;-72
2023/05/15 10:09:57;;;;;;;10.70;4.40;;;;;;;17.50;47.09;99354.22;105747;1260;59553;-73
2023/05/15 10:12:47;;;;;;;9.10;4.20;;;;;;;17.40;47.48;99353.63;106152;1254;59966;-74
2023/05/15 10:15:37;;;;;;;11.50;4.70;;;;;;;17.40;47.87;99352.39;106247;1256;73198;-73
2023/05/15 10:18:29;;;;;;;9.00;4.40;;;;;;;17.47;48.26;99356.39;105900;1259;68013;-72
2023/05/15 10:21:21;;;;;;;10.60;4.50;;;;;;;17.54;48.28;99344.02;105868;1260;71942;-74
2023/05/15 10:24:11;;;;;;;10.80;4.90;;;;;;;17.55;48.57;99342.18;105825;1258;59699;-74
2023/05/15 10:27:05;;;;;;;9.10;4.70;;;;;;;17.56;48.23;99343.97;105593;1261;59644;-74
2023/05/15 10:29:56;;;;;;;11.20;4.10;;;;;;;17.48;47.96;99348.55;105511;1260;73800;-75
2023/05/15 10:32:44;;;;;;;8.90;4.10;;;;;;;17.36;47.79;99360.23;105540;1262;68140;-73
2023/05/15 10:35:35;;;;;;;9.80;4.80;;;;;;;17.31;48.60;99372.02;105881;1260;71414;-72
2023/05/15 10:38:24;;;;;;;10.30;4.60;;;;;;;17.22;49.06;99377.20;105854;1260;59625;-74
2023/05/15 10:41:16;;;;;;;11.70;4.90;;;;;;;17.10;50.37;99381.89;105715;1262;60100;-75
2023/05/15 10:44:05;;;;;;;10.50;5.00;;;;;;;16.96;51.34;99391.84;105455;1259;71756;-75
2023/05/15 10:46:54;;;;;;;11.90;4.60;;;;;;;16.77;53.16;99393.10;105517;1262;69161;-74
2023/05/15 10:49:45;;;;;;;10.20;4.50;;;;;;;16.48;53.96;99383.73;105581;1260;73992;-74
2023/05/15 10:52:38;;;;;;;9.60;4.20;;;;;;;16.20;54.82;99394.83;105448;1262;59730;-72
2023/05/15 10:55:26;;;;;;;11.30;4.20;;;;;;;15.84;57.38;99373.09;105387;1261;59621;-75
2023/05/15 10:58:14;;;;;;;10.50;4.20;;;;;;;15.62;59.07;99365.05;105571;1262;73049;-74
2023/05/15 11:01:02;;;;;;;9.70;4.10;;;;;;;15.46;58.85;99359.86;105621;1262;67926;-74
2023/05/15 11:03:50;;;;;;;10.40;3.90;;;;;;;15.39;60.60;99357.77;105724;1260;72524;-80
2023/05/15 11:06:46;;;;;;;8.90;3.50;;;;;;;15.29;61.72;99355.04;106771;1264;59657;-80
2023/05/15 11:09:38;;;;;;;9.30;4.00;;;;;;;15.22;63.18;99342.88;106015;1257;60092;-76
2023/05/15 11:12:58;;;;;;;10.80;4.20;;;;;;;15.18;63.97;99317.11;105995;1259;73093;-75
2023/05/15 11:15:47;;;;;;;10.10;4.10;;;;;;;15.15;66.68;99294.58;105766;1262;66525;-75
2023/05/15 11:18:36;;;;;;;7.20;3.70;;;;;;;15.07;65.28;99287.98;105669;1262;72420;-73
2023/05/15 11:21:31;;;;;;;9.10;4.20;;;;;;;15.09;66.07;99280.31;105489;1265;59533;-76
2023/05/15 11:24:19;;;;;;;7.70;4.00;;;;;;;15.17;66.69;99271.03;105832;1259;60148;-76
2023/05/15 11:27:12;;;;;;;10.40;4.00;;;;;;;15.26;67.61;99255.53;105866;1259;71176;-77
2023/05/15 11:30:21;;;;;;;8.40;3.50;;;;;;;15.30;67.14;99253.13;106115;1256;65586;-75
2023/05/15 11:33:10;;;;;;;10.10;3.90;;;;;;;15.36;67.79;99242.83;105908;1256;71436;-76
2023/05/15 11:36:00;;;;;;;7.90;3.60;;;;;;;15.41;68.29;99233.46;106008;1259;59511;-75
2023/05/15 11:38:49;;;;;;;8.20;3.50;;;;;;;15.37;68.24;99226.08;106101;1259;60064;-75
2023/05/15 11:41:40;;;;;;;8.50;3.40;;;;;;;15.33;67.78;99217.41;105816;1257;71884;-78
2023/05/15 11:44:28;;;;;;;7.50;3.40;;;;;;;15.25;68.67;99211.86;106014;1259;67794;-76
2023/05/15 11:47:18;;;;;;;7.40;3.50;;;;;;;15.10;69.71;99212.41;106282;1253;72492;-78
2023/05/15 11:50:09;;;;;;;9.10;4.00;;;;;;;14.98;70.23;99208.94;106022;1262;59609;-75
2023/05/15 11:53:06;;;;;;;9.20;3.70;;;;;;;14.89;70.73;99202.74;105825;1259;60123;-76
2023/05/15 11:55:55;;;;;;;8.00;3.60;;;;;;;14.80;70.68;99206.91;106164;1254;72960;-76
2023/05/15 11:58:50;;;;;;;8.90;4.00;;;;;;;14.72;71.55;99205.52;106362;1258;67629;-71
2023/05/15 12:01:46;;;;;;;9.60;4.40;;;;;;;14.68;72.34;99207.06;105878;1253;72861;-79
2023/05/15 12:04:34;;;;;;;8.20;3.70;;;;;;;14.60;72.76;99205.17;106576;1260;59612;-79
2023/05/15 12:07:22;;;;;;;8.80;3.60;;;;;;;14.54;72.52;99209.55;106004;1254;59616;-69
2023/05/15 12:10:12;;;;;;;8.40;3.90;;;;;;;14.52;73.38;99210.54;105792;1254;72885;-74
2023/05/15 12:13:00;;;;;;;8.80;4.10;;;;;;;14.47;74.24;99214.55;105737;1253;68935;-72
2023/05/15 12:15:49;;;;;;;7.80;3.90;;;;;;;14.43;75.02;99216.95;105760;1254;71108;-73
2023/05/15 12:18:37;;;;;;;9.60;4.70;;;;;;;14.41;75.30;99207.75;105708;1254;60359;-72
2023/05/15 12:21:27;;;;;;;9.90;4.40;;;;;;;14.38;75.41;99200.68;106552;1260;60126;-73
2023/05/15 12:24:20;;;;;;;8.50;4.00;;;;;;;14.37;75.87;99203.15;107898;1253;74042;-73
2023/05/15 12:27:08;;;;;;;9.20;4.60;;;;;;;14.31;76.47;99203.41;107652;1254;66572;-73
2023/05/15 12:29:57;;;;;;;9.40;4.50;;;;;;;14.28;76.57;99201.97;107846;1254;71915;-73
2023/05/15 12:32:47;;;;;;;8.20;4.30;;;;;;;14.29;77.49;99203.62;107219;1254;59618;-75
2023/05/15 12:35:42;;;;;;;11.40;4.90;;;;;;;14.41;77.67;99192.18;106307;1257;60072;-73
2023/05/15 12:38:32;;;;;;;9.10;4.00;;;;;;;14.47;76.67;99182.66;106036;1258;73111;-73
2023/05/15 12:41:21;;;;;;;9.10;4.30;;;;;;;14.51;76.57;99175.31;105767;1257;66788;-69
2023/05/15 12:44:16;;;;;;;9.80;4.30;;;;;;;14.51;77.55;99174.36;105760;1259;73192;-76
2023/05/15 12:47:06;;;;;;;9.10;4.20;;;;;;;14.49;77.30;99169.24;105695;1265;60242;-75
2023/05/15 12:49:58;;;;;;;10.90;4.20;;;;;;;14.41;77.54;99166.49;105654;1256;60035;-69
2023/05/15 12:52:55;;;;;;;9.20;3.70;;;;;;;14.29;77.53;99160.48;105551;1256;73105;-74
2023/05/15 12:55:45;;;;;;;8.90;4.30;;;;;;;14.18;79.04;99153.12;106834;1256;67724;-73
2023/05/15 12:58:37;;;;;;;10.30;4.10;;;;;;;14.09;78.47;99157.63;105673;1257;72685;-72
2023/05/15 13:01:25;;;;;;;10.10;4.40;;;;;;;14.04;78.73;99158.35;105667;1258;59719;-72
2023/05/15 13:04:15;;;;;;;10.30;5.00;;;;;;;14.05;79.07;99155.41;106068;1256;60347;-76
2023/05/15 13:07:06;;;;;;;9.50;4.30;;;;;;;14.06;79.60;99154.52;105775;1256;71751;-76